createdAt,value
2022-08-05T00:01:01.030Z,78.58
2022-08-05T00:03:53.977Z,78.40
2022-08-05T00:06:35.887Z,78.70
2022-08-05T00:09:13.216Z,78.66
2022-08-05T00:11:56.054Z,78.88
2022-08-05T00:14:35.935Z,78.94
2022-08-05T00:17:19.336Z,78.96
2022-08-05T00:20:02.741Z,79.15
2022-08-05T00:22:39.292Z,79.46
2022-08-05T00:25:23.249Z,79.76
2022-08-05T00:28:00.051Z,79.84
2022-08-05T00:30:36.365Z,79.93
2022-08-05T00:34:42.181Z,79.98
2022-08-05T00:36:16.119Z,80.09
2022-08-05T00:39:13.374Z,80.21
2022-08-05T00:41:55.574Z,80.42
2022-08-05T00:44:31.902Z,80.50
2022-08-05T00:47:08.301Z,80.62
2022-08-05T00:49:51.715Z,80.63
2022-08-05T00:52:28.722Z,80.64
2022-08-05T00:55:06.103Z,80.75
2022-08-05T00:57:58.100Z,80.88
2022-08-05T01:00:35.536Z,80.99
2022-08-05T01:03:22.981Z,81.09
2022-08-05T01:05:59.365Z,81.18
2022-08-05T01:08:42.951Z,81.25
2022-08-05T01:11:33.667Z,81.28
2022-08-05T01:14:27.741Z,81.42
2022-08-05T01:17:10.707Z,81.59
2022-08-05T01:20:01.275Z,82.01
2022-08-05T01:23:14.419Z,82.19
2022-08-05T01:26:31.118Z,82.73
2022-08-05T01:29:12.262Z,82.67
2022-08-05T01:31:55.885Z,82.60
2022-08-05T01:34:39.336Z,82.66
2022-08-05T01:37:25.471Z,82.60
2022-08-05T01:40:06.711Z,82.73
2022-08-05T01:42:46.368Z,82.97
2022-08-05T01:45:24.701Z,83.00
2022-08-05T01:48:05.007Z,83.01
2022-08-05T01:50:51.078Z,83.12
2022-08-05T01:53:54.576Z,83.27
2022-08-05T01:58:11.074Z,83.33
2022-08-05T01:59:29.238Z,83.22
2022-08-05T02:02:10.764Z,83.05
2022-08-05T02:04:49.815Z,82.91
2022-08-05T02:07:26.238Z,83.09
2022-08-05T02:10:08.415Z,83.15
2022-08-05T02:12:54.850Z,82.87
2022-08-05T02:15:41.866Z,82.87
2022-08-05T02:18:34.810Z,82.99
2022-08-05T02:21:18.945Z,83.04
2022-08-05T02:24:03.027Z,83.20
2022-08-05T02:26:51.924Z,83.18
2022-08-05T02:29:58.649Z,83.02
2022-08-05T02:32:35.428Z,83.18
2022-08-05T02:35:27.644Z,83.12
2022-08-05T02:38:12.113Z,82.97
2022-08-05T02:40:56.371Z,83.08
2022-08-05T02:43:35.461Z,83.07
2022-08-05T02:46:33.165Z,83.07
2022-08-05T02:49:14.406Z,83.18
2022-08-05T02:52:03.532Z,83.49
2022-08-05T02:54:52.152Z,83.55
2022-08-05T02:58:12.295Z,83.44
2022-08-05T03:00:27.283Z,83.30
2022-08-05T03:03:10.282Z,83.41
2022-08-05T03:06:54.539Z,83.64
2022-08-05T03:08:45.975Z,83.78
2022-08-05T03:11:57.588Z,83.81
2022-08-05T03:14:26.798Z,84.03
2022-08-05T03:17:07.360Z,84.16
2022-08-05T03:19:45.879Z,84.31
2022-08-05T03:22:32.310Z,84.46
2022-08-05T03:25:32.044Z,84.56
2022-08-05T03:28:09.983Z,84.63
2022-08-05T03:30:47.652Z,84.49
2022-08-05T03:33:24.133Z,84.44
2022-08-05T03:36:30.032Z,84.36
2022-08-05T03:39:20.195Z,84.35
2022-08-05T03:42:03.582Z,84.33
2022-08-05T03:44:40.572Z,84.50
2022-08-05T03:47:16.565Z,84.58
2022-08-05T03:49:52.650Z,84.66
2022-08-05T03:54:59.406Z,84.70
2022-08-05T03:56:01.744Z,84.26
2022-08-05T03:58:46.894Z,81.77
2022-08-05T04:01:26.654Z,78.59
2022-08-05T04:04:11.071Z,75.34
2022-08-05T04:06:51.311Z,72.35
2022-08-05T04:09:29.790Z,69.24
2022-08-05T04:12:23.715Z,65.53
2022-08-05T04:15:01.360Z,63.81
2022-08-05T04:17:56.282Z,61.63
2022-08-05T04:20:34.170Z,58.89
2022-08-05T04:23:12.488Z,55.57
2022-08-05T04:25:57.883Z,54.10
2022-08-05T04:28:36.863Z,51.54
2022-08-05T04:31:38.450Z,50.60
2022-08-05T04:34:31.897Z,47.46
2022-08-05T04:37:10.481Z,47.18
2022-08-05T04:39:47.014Z,44.54
2022-08-05T04:42:29.308Z,44.41
2022-08-05T04:45:05.749Z,44.01
2022-08-05T04:47:42.887Z,43.44
2022-08-05T04:50:37.592Z,39.97
2022-08-05T04:53:21.508Z,40.13
2022-08-05T04:56:32.401Z,39.87
2022-08-05T04:58:53.926Z,37.75
2022-08-05T05:02:05.654Z,38.60
2022-08-05T05:04:26.452Z,37.89
2022-08-05T05:07:03.327Z,36.99
2022-08-05T05:09:39.268Z,36.44
2022-08-05T05:12:17.085Z,36.61
2022-08-05T05:14:53.193Z,36.41
2022-08-05T05:17:55.648Z,36.49
2022-08-05T05:20:28.444Z,36.46
2022-08-05T05:23:08.072Z,35.10
2022-08-05T05:25:45.714Z,34.92
2022-08-05T05:28:24.931Z,33.85
2022-08-05T05:31:00.893Z,34.17
2022-08-05T05:33:59.582Z,34.02
2022-08-05T05:36:37.925Z,34.73
2022-08-05T05:39:14.984Z,34.24
2022-08-05T05:41:55.208Z,32.59
2022-08-05T05:44:36.368Z,33.41
2022-08-05T05:47:21.465Z,32.58
2022-08-05T05:50:01.401Z,32.22
2022-08-05T05:52:40.570Z,32.52
2022-08-05T05:55:19.321Z,31.04
2022-08-05T05:57:55.311Z,31.00
2022-08-05T06:00:38.215Z,31.64
2022-08-05T06:03:40.171Z,31.10
2022-08-05T06:06:11.692Z,30.85
2022-08-05T06:08:49.276Z,30.87
2022-08-05T06:11:26.491Z,30.70
2022-08-05T06:14:05.434Z,30.75
2022-08-05T06:16:41.415Z,30.66
2022-08-05T06:19:34.079Z,29.98
2022-08-05T06:22:12.346Z,30.66
2022-08-05T06:24:48.905Z,30.16
2022-08-05T06:28:11.173Z,30.16
2022-08-05T06:30:21.469Z,29.90
2022-08-05T06:32:57.867Z,29.71
2022-08-05T06:36:08.093Z,28.65
2022-08-05T06:38:36.134Z,27.83
2022-08-05T06:41:13.095Z,27.67
2022-08-05T06:43:58.488Z,27.63
2022-08-05T06:46:36.276Z,27.39
2022-08-05T06:49:13.387Z,26.78
2022-08-05T06:51:49.960Z,26.61
2022-08-05T06:54:26.047Z,26.80
2022-08-05T06:57:56.718Z,26.39
2022-08-05T06:59:58.332Z,26.69
2022-08-05T07:02:34.431Z,26.93
2022-08-05T07:05:14.244Z,27.21
2022-08-05T07:07:55.833Z,26.56
2022-08-05T07:10:33.176Z,27.57
2022-08-05T07:13:56.703Z,27.67
2022-08-05T07:17:59.256Z,28.10
2022-08-05T07:22:33.200Z,27.21
2022-08-05T07:25:54.250Z,26.53
2022-08-05T07:28:11.745Z,25.98
2022-08-05T07:30:54.824Z,26.17
2022-08-05T07:33:36.622Z,26.21
2022-08-05T07:36:20.643Z,26.06
2022-08-05T07:38:58.578Z,25.89
2022-08-05T07:42:13.102Z,26.05
2022-08-05T07:44:30.749Z,25.03
2022-08-05T07:47:08.002Z,24.50
2022-08-05T07:49:54.634Z,25.46
2022-08-05T07:52:31.036Z,26.16
2022-08-05T07:55:44.405Z,25.99
2022-08-05T07:58:05.201Z,26.14
2022-08-05T08:00:43.307Z,25.96
2022-08-05T08:03:21.712Z,26.07
2022-08-05T08:05:57.934Z,26.14
2022-08-05T08:08:35.252Z,26.41
2022-08-05T08:11:15.916Z,26.35
2022-08-05T08:14:01.114Z,25.56
2022-08-05T08:16:50.150Z,26.22
2022-08-05T08:20:22.151Z,26.46
2022-08-05T08:22:28.315Z,26.95
2022-08-05T08:25:15.837Z,26.53
2022-08-05T08:27:52.885Z,26.58
2022-08-05T08:30:37.682Z,26.40
2022-08-05T08:33:23.895Z,26.47
2022-08-05T08:36:29.322Z,26.78
2022-08-05T08:38:59.341Z,27.16
2022-08-05T08:41:51.736Z,27.08
2022-08-05T08:45:22.868Z,26.75
2022-08-05T08:48:07.589Z,27.76
2022-08-05T08:51:07.615Z,27.82
2022-08-05T08:53:40.330Z,28.28
2022-08-05T08:56:27.108Z,27.87
2022-08-05T08:59:09.784Z,28.23
2022-08-05T09:01:57.564Z,28.96
2022-08-05T09:04:58.451Z,30.39
2022-08-05T09:07:39.457Z,31.11
2022-08-05T09:10:32.000Z,31.44
2022-08-05T09:13:08.456Z,32.74
2022-08-05T09:15:45.611Z,33.14
2022-08-05T09:18:23.003Z,33.54
2022-08-05T09:20:59.199Z,34.37
2022-08-05T09:23:43.571Z,34.59
2022-08-05T09:26:20.721Z,34.94
2022-08-05T09:29:04.701Z,35.64
2022-08-05T09:32:45.820Z,35.95
2022-08-05T09:34:55.978Z,35.87
2022-08-05T09:38:11.991Z,35.83
2022-08-05T09:40:44.646Z,36.60
2022-08-05T09:43:40.900Z,36.51
2022-08-05T09:46:33.798Z,37.29
2022-08-05T09:49:54.417Z,36.91
2022-08-05T09:52:31.386Z,37.28
2022-08-05T09:55:57.297Z,37.61
2022-08-05T09:58:17.350Z,37.48
2022-08-05T10:01:13.337Z,38.00
2022-08-05T10:04:10.031Z,37.65
2022-08-05T10:06:58.904Z,37.65
2022-08-05T10:09:44.909Z,38.05
2022-08-05T10:12:33.374Z,38.13
2022-08-05T10:15:27.875Z,38.25
2022-08-05T10:18:20.395Z,38.21
2022-08-05T10:21:08.339Z,38.37
2022-08-05T10:23:59.235Z,38.12
2022-08-05T10:26:37.552Z,39.05
2022-08-05T10:31:20.121Z,39.18
2022-08-05T10:32:54.992Z,39.35
2022-08-05T10:35:33.652Z,39.19
2022-08-05T10:38:11.840Z,38.82
2022-08-05T10:41:03.098Z,38.81
2022-08-05T10:43:57.556Z,38.93
2022-08-05T10:49:48.959Z,39.29
2022-08-05T10:52:52.442Z,39.04
2022-08-05T10:56:03.330Z,38.78
2022-08-05T10:58:35.877Z,38.71
2022-08-05T11:01:11.530Z,38.89
2022-08-05T11:04:17.575Z,38.84
2022-08-05T11:07:16.522Z,38.72
2022-08-05T11:10:09.538Z,38.65
2022-08-05T11:12:55.029Z,38.29
2022-08-05T11:16:00.254Z,38.09
2022-08-05T11:18:36.762Z,37.57
2022-08-05T11:21:48.796Z,37.89
2022-08-05T11:24:29.870Z,37.96
2022-08-05T11:27:51.722Z,37.45
2022-08-05T11:30:33.191Z,37.34
2022-08-05T11:33:34.505Z,37.63
2022-08-05T11:36:43.004Z,37.08
2022-08-05T11:39:48.299Z,36.81
2022-08-05T11:42:30.298Z,36.42
2022-08-05T11:45:23.198Z,35.69
2022-08-05T11:48:12.864Z,35.70
2022-08-05T11:50:52.166Z,36.44
2022-08-05T11:53:29.001Z,36.04
2022-08-05T11:56:17.201Z,36.44
2022-08-05T11:58:54.812Z,35.47
2022-08-05T12:01:30.729Z,36.31
2022-08-05T12:04:07.268Z,36.33
2022-08-05T12:06:48.748Z,35.09
2022-08-05T12:09:52.645Z,35.34
2022-08-05T12:12:29.225Z,35.56
2022-08-05T12:15:05.864Z,35.50
2022-08-05T12:18:03.999Z,35.08
2022-08-05T12:20:40.654Z,35.28
2022-08-05T12:23:17.658Z,35.59
2022-08-05T12:25:58.549Z,36.01
2022-08-05T12:28:38.249Z,36.74
2022-08-05T12:31:23.351Z,36.64
2022-08-05T12:34:20.588Z,36.56
2022-08-05T12:37:01.491Z,36.47
2022-08-05T12:39:41.187Z,36.42
2022-08-05T12:42:25.292Z,36.52
2022-08-05T12:45:11.271Z,36.76
2022-08-05T12:48:01.559Z,36.75
2022-08-05T12:50:44.131Z,36.37
2022-08-05T12:53:23.108Z,36.38
2022-08-05T12:56:35.181Z,36.31
2022-08-05T12:59:27.418Z,36.57
2022-08-05T13:02:10.731Z,36.43
2022-08-05T13:04:54.481Z,36.91
2022-08-05T13:07:57.688Z,36.06
2022-08-05T13:10:28.747Z,36.20
2022-08-05T13:13:09.174Z,36.45
2022-08-05T13:15:51.139Z,36.72
2022-08-05T13:18:37.916Z,36.36
2022-08-05T13:21:14.149Z,35.98
2022-08-05T13:23:52.136Z,35.81
2022-08-05T13:26:30.255Z,36.10
2022-08-05T13:29:06.693Z,36.17
2022-08-05T13:32:05.031Z,36.08
2022-08-05T13:34:40.825Z,35.83
2022-08-05T13:37:34.489Z,35.46
2022-08-05T13:40:35.530Z,35.48
2022-08-05T13:43:12.016Z,35.89
2022-08-05T13:45:48.332Z,35.56
2022-08-05T13:48:57.336Z,35.32
2022-08-05T13:51:36.679Z,35.13
2022-08-05T13:54:21.040Z,35.50
2022-08-05T13:57:01.106Z,35.10
2022-08-05T13:59:37.506Z,35.18
2022-08-05T14:02:33.806Z,35.32
2022-08-05T14:05:11.910Z,35.47
2022-08-05T14:07:59.815Z,35.77
2022-08-05T14:10:41.962Z,35.59
2022-08-05T14:13:17.874Z,35.30
2022-08-05T14:16:04.634Z,35.69
2022-08-05T14:18:45.390Z,35.84
2022-08-05T14:22:07.137Z,35.39
2022-08-05T14:24:19.536Z,35.20
2022-08-05T14:27:17.711Z,35.31
2022-08-05T14:29:52.673Z,35.27
2022-08-05T14:32:31.232Z,35.15
2022-08-05T14:35:10.620Z,34.89
2022-08-05T14:37:49.892Z,35.60
2022-08-05T14:40:27.174Z,34.92
2022-08-05T14:43:03.035Z,35.16
2022-08-05T14:45:39.082Z,34.71
2022-08-05T14:48:33.259Z,34.92
2022-08-05T14:51:10.141Z,35.07
2022-08-05T14:54:26.413Z,34.81
2022-08-05T14:56:48.938Z,34.39
2022-08-05T14:59:29.134Z,34.59
2022-08-05T15:02:15.787Z,35.21
2022-08-05T15:04:52.957Z,34.94
2022-08-05T15:08:08.996Z,34.75
2022-08-05T15:10:28.875Z,34.66
2022-08-05T15:13:05.611Z,34.72
2022-08-05T15:15:55.137Z,34.67
2022-08-05T15:18:34.241Z,34.93
2022-08-05T15:21:13.943Z,34.96
2022-08-05T15:23:50.177Z,35.05
2022-08-05T15:26:32.170Z,35.00
2022-08-05T15:29:08.744Z,34.94
2022-08-05T15:31:49.739Z,34.87
2022-08-05T15:34:32.105Z,35.08
2022-08-05T15:37:15.578Z,35.12
2022-08-05T15:41:01.993Z,35.37
2022-08-05T15:42:55.838Z,35.48
2022-08-05T15:45:38.248Z,35.65
2022-08-05T15:48:15.770Z,35.62
2022-08-05T15:50:52.194Z,35.76
2022-08-05T15:53:38.338Z,35.88
2022-08-05T15:56:27.262Z,35.98
2022-08-05T15:59:06.802Z,35.86
2022-08-05T16:01:52.741Z,36.04
2022-08-05T16:04:29.473Z,36.04
2022-08-05T16:07:05.887Z,36.02
2022-08-05T16:09:43.562Z,35.83
2022-08-05T16:12:20.014Z,36.15
2022-08-05T16:14:56.660Z,36.18
2022-08-05T16:17:32.678Z,36.29
2022-08-05T16:20:12.364Z,36.55
2022-08-05T16:22:48.609Z,36.91
2022-08-05T16:25:32.204Z,37.02
2022-08-05T16:28:11.825Z,37.18
2022-08-05T16:30:47.867Z,37.28
2022-08-05T16:33:27.279Z,37.49
2022-08-05T16:36:04.068Z,37.54
2022-08-05T16:38:41.949Z,37.96
2022-08-05T16:42:14.008Z,37.99
2022-08-05T16:44:16.600Z,38.22
2022-08-05T16:46:55.818Z,38.52
2022-08-05T16:49:32.326Z,38.67
2022-08-05T16:52:09.854Z,39.19
2022-08-05T16:54:47.978Z,39.49
2022-08-05T16:57:26.759Z,39.61
2022-08-05T17:00:25.920Z,39.82
2022-08-05T17:03:19.967Z,40.46
2022-08-05T17:05:59.569Z,40.65
2022-08-05T17:08:53.611Z,40.93
2022-08-05T17:11:31.779Z,41.00
2022-08-05T17:14:37.768Z,41.16
2022-08-05T17:17:15.361Z,41.46
2022-08-05T17:19:53.883Z,41.94
2022-08-05T17:22:32.481Z,41.99
2022-08-05T17:25:34.204Z,42.26
2022-08-05T17:28:09.291Z,42.63
2022-08-05T17:30:50.506Z,42.85
2022-08-05T17:33:28.369Z,43.01
2022-08-05T17:36:33.871Z,43.62
2022-08-05T17:39:24.265Z,43.89
2022-08-05T17:42:17.632Z,44.24
2022-08-05T17:45:18.242Z,44.62
2022-08-05T17:47:58.321Z,45.02
2022-08-05T17:50:35.092Z,45.53
2022-08-05T17:53:11.786Z,46.03
2022-08-05T17:55:47.944Z,46.78
2022-08-05T17:58:32.458Z,46.76
2022-08-05T18:01:09.948Z,47.39
2022-08-05T18:03:58.993Z,47.77
2022-08-05T18:06:40.359Z,48.49
2022-08-05T18:09:22.110Z,49.45
2022-08-05T18:12:05.087Z,49.97
2022-08-05T18:14:43.129Z,50.75
2022-08-05T18:18:00.710Z,51.64
2022-08-05T18:20:18.947Z,52.35
2022-08-05T18:22:57.385Z,53.43
2022-08-05T18:25:33.964Z,54.18
2022-08-05T18:28:12.489Z,54.98
2022-08-05T18:30:53.520Z,55.62
2022-08-05T18:33:37.656Z,56.19
2022-08-05T18:36:27.913Z,56.50
2022-08-05T18:39:09.732Z,57.30
2022-08-05T18:42:06.212Z,57.88
2022-08-05T18:44:49.261Z,58.53
2022-08-05T18:47:31.793Z,58.95
2022-08-05T18:50:45.336Z,59.52
2022-08-05T18:53:25.234Z,59.70
2022-08-05T18:56:02.420Z,60.58
2022-08-05T18:58:48.456Z,61.15
2022-08-05T19:01:33.302Z,61.66
2022-08-05T19:04:24.083Z,62.17
2022-08-05T19:07:00.450Z,62.61
2022-08-05T19:09:40.219Z,62.76
2022-08-05T19:12:17.360Z,63.10
2022-08-05T19:15:00.499Z,63.65
2022-08-05T19:18:08.677Z,64.07
2022-08-05T19:20:35.696Z,64.38
2022-08-05T19:24:05.806Z,64.95
2022-08-05T19:26:11.796Z,65.24
2022-08-05T19:28:48.052Z,65.29
2022-08-05T19:31:24.458Z,65.55
2022-08-05T19:34:01.293Z,65.41
2022-08-05T19:36:38.628Z,65.55
2022-08-05T19:39:19.011Z,65.87
2022-08-05T19:42:06.957Z,66.07
2022-08-05T19:44:46.877Z,66.30
2022-08-05T19:47:23.455Z,66.36
2022-08-05T19:50:02.624Z,66.62
2022-08-05T19:52:39.706Z,67.02
2022-08-05T19:56:15.228Z,67.35
2022-08-05T19:58:28.486Z,67.75
2022-08-05T20:01:06.072Z,68.21
2022-08-05T20:03:42.296Z,68.53
2022-08-05T20:06:29.099Z,68.72
2022-08-05T20:09:13.912Z,68.87
2022-08-05T20:11:51.590Z,69.18
2022-08-05T20:14:27.637Z,69.42
2022-08-05T20:17:06.248Z,69.64
2022-08-05T20:19:42.330Z,69.90
2022-08-05T20:22:18.387Z,69.96
2022-08-05T20:24:56.867Z,70.06
2022-08-05T20:27:41.745Z,70.31
2022-08-05T20:30:19.768Z,70.48
2022-08-05T20:32:56.261Z,70.72
2022-08-05T20:35:32.650Z,70.94
2022-08-05T20:38:22.717Z,70.98
2022-08-05T20:41:04.609Z,71.14
2022-08-05T20:43:59.049Z,71.39
2022-08-05T20:46:37.973Z,71.49
2022-08-05T20:49:14.019Z,71.77
2022-08-05T20:51:53.357Z,71.96
2022-08-05T20:54:43.701Z,72.25
2022-08-05T20:57:43.192Z,72.41
2022-08-05T21:00:44.415Z,72.57
2022-08-05T21:03:20.504Z,72.59
2022-08-05T21:05:56.806Z,72.67
2022-08-05T21:08:41.603Z,72.84
2022-08-05T21:12:09.311Z,72.87
2022-08-05T21:14:14.911Z,73.09
2022-08-05T21:16:51.007Z,73.52
2022-08-05T21:19:27.213Z,73.72
2022-08-05T21:22:04.612Z,73.78
2022-08-05T21:24:48.748Z,73.76
2022-08-05T21:27:27.425Z,73.82
2022-08-05T21:30:03.710Z,73.60
2022-08-05T21:32:39.822Z,74.01
2022-08-05T21:35:29.794Z,74.27
2022-08-05T21:38:06.601Z,74.17
2022-08-05T21:40:43.942Z,74.11
2022-08-05T21:43:24.713Z,73.95
2022-08-05T21:46:01.189Z,74.12
2022-08-05T21:48:40.771Z,74.32
2022-08-05T21:52:16.578Z,73.65
2022-08-05T21:54:13.004Z,73.72
2022-08-05T21:56:51.582Z,74.04
2022-08-05T21:59:54.128Z,72.54
2022-08-05T22:02:27.443Z,72.08
2022-08-05T22:05:04.374Z,73.75
2022-08-05T22:07:57.957Z,74.56
2022-08-05T22:10:35.869Z,74.68
2022-08-05T22:14:33.979Z,72.42
2022-08-05T22:16:32.208Z,74.22
2022-08-05T22:19:15.930Z,74.90
2022-08-05T22:22:01.858Z,75.38
2022-08-05T22:24:56.045Z,75.78
2022-08-05T22:28:10.577Z,75.93
2022-08-05T22:30:56.518Z,76.15
2022-08-05T22:33:56.787Z,76.53
2022-08-05T22:36:29.707Z,76.36
2022-08-05T22:39:09.587Z,76.45
2022-08-05T22:42:10.590Z,76.37
2022-08-05T22:44:47.003Z,76.26
2022-08-05T22:47:30.658Z,76.05
2022-08-05T22:50:20.285Z,76.29
2022-08-05T22:53:00.001Z,76.40
2022-08-05T22:55:56.530Z,76.82
2022-08-05T22:58:32.258Z,77.63
2022-08-05T23:01:09.323Z,78.04
2022-08-05T23:03:58.021Z,77.55
2022-08-05T23:06:35.503Z,77.85
2022-08-05T23:09:27.772Z,77.21
2022-08-05T23:12:09.752Z,76.56
2022-08-05T23:14:47.033Z,76.76
2022-08-05T23:17:34.060Z,76.44
2022-08-05T23:20:17.747Z,76.16
2022-08-05T23:22:55.984Z,76.92
2022-08-05T23:25:54.773Z,76.64
2022-08-05T23:28:30.850Z,76.29
2022-08-05T23:31:16.046Z,76.11
2022-08-05T23:34:04.884Z,76.09
2022-08-05T23:36:44.879Z,76.45
2022-08-05T23:39:23.684Z,76.27
2022-08-05T23:42:14.222Z,76.16
2022-08-05T23:44:54.312Z,76.12
2022-08-05T23:47:33.488Z,76.04
2022-08-05T23:50:11.903Z,76.35
2022-08-05T23:52:51.691Z,76.47
2022-08-05T23:55:31.135Z,76.60
2022-08-05T23:58:07.364Z,76.64
